• Join FlightAware (Why Join?)
  • Login
  • US Flag 
09:59PM EDT


 

Airport Tracker/Info


-or-


 

Live Flight TrackerFlight Track Log ✈ TRS147 ✈ 03-Jun-2013 ✈ KATL - KSAT

Flight Track Log - Related Links

Times and Time Zones

All times are in EDT time to prevent confusion due to time zone crossing. See the TRS147 flight status page for this flight to view local times or setup timezone preferences in your user account.

Time Position Orientation Groundspeed Altitude Reporting Facility
EDT Latitude Longitude Course Direction KTS MPH feet Rate Location/Type
10:35PM 33.6500 -84.4667 239° Southwest 159 183 2,700  Level Atlanta TRACON
10:36PM 33.6667 -84.5333 287° West 243 280 6,100 3,840 Climbing Atlanta TRACON
10:37PM 33.6833 -84.6167 284° West 263 303 10,000 3,000 Climbing Atlanta TRACON
10:38PM 33.6939 -84.7728 275° West 335 386 13,500 2,760 Climbing Atlanta Center
10:39PM 33.6494 -84.8847 245° Southwest 352 405 17,100 3,300 Climbing Atlanta Center
10:40PM 33.7946 -84.5776 239° Southwest  Level FlightAware Approximate
10:40PM 33.5983 -85.0139 245° Southwest 373 429 20,100  Level Atlanta Center
10:41PM 33.5450 -85.1406 243° Southwest 407 468 22,900 2,820 Climbing Atlanta Center
10:42PM 33.5022 -85.2719 249° West 422 486 25,800 2,700 Climbing Atlanta Center
10:43PM 33.4819 -85.4086 260° West 423 487 28,400 2,400 Climbing Atlanta Center
10:44PM 33.4553 -85.5428 257° West 423 487 30,700 2,220 Climbing Atlanta Center
10:45PM 33.4203 -85.6764 253° West 423 487 32,900 1,980 Climbing Atlanta Center
10:46PM 33.3872 -85.7978 252° West 429 494 34,700 1,860 Climbing Atlanta Center
10:47PM 33.3433 -85.9361 249° West 417 480 36,700 1,980 Climbing Atlanta Center
10:48PM 33.3058 -86.0719 252° West 422 486 38,700 1,620 Climbing Atlanta Center
10:49PM 33.2725 -86.1906 251° West 385 443 40,000 600 Climbing Atlanta Center
10:50PM 33.2367 -86.3164 251° West 406 467 40,000  Level Atlanta Center
10:51PM 33.2008 -86.4469 252° West 406 467 40,000  Level Atlanta Center
10:52PM 33.1650 -86.5675 250° West 401 461 40,000  Level Atlanta Center
10:53PM 33.1269 -86.6928 250° West 406 467 40,000  Level Atlanta Center
10:54PM 33.0886 -86.8181 250° West 401 461 40,000  Level Atlanta Center
10:55PM 33.0544 -86.9436 252° West 401 461 40,000  Level Atlanta Center
10:56PM 33.0161 -87.0711 250° West 401 461 40,000  Level Atlanta Center
10:57PM 32.9772 -87.1958 250° West 401 461 40,000  Level Atlanta Center
10:58PM 32.9406 -87.3258 251° West 406 467 40,000  Level Atlanta Center
11:00PM 32.8639 -87.5675 249° West 377 434 40,000  Level Memphis Center
11:01PM 32.8250 -87.6897 249° West 390 449 40,000  Level Memphis Center
11:02PM 32.7881 -87.8194 251° West 402 463 40,000  Level Memphis Center
11:03PM 32.7528 -87.9464 252° West 408 470 40,000  Level Memphis Center
11:04PM 32.7114 -88.0733 249° West 408 470 40,000  Level Memphis Center
11:05PM 32.6742 -88.2028 251° West 408 470 40,000  Level Memphis Center
11:06PM 32.6344 -88.3294 250° West 408 470 40,000  Level Memphis Center
11:07PM 32.5928 -88.4611 249° West 413 475 40,000  Level Memphis Center
11:08PM 32.5550 -88.5900 251° West 418 481 40,000  Level Memphis Center
11:09PM 32.5128 -88.7189 249° West 418 481 40,000  Level Memphis Center
11:10PM 32.4728 -88.8478 250° West 418 481 40,000  Level Memphis Center
11:11PM 32.4325 -88.9764 250° West 418 481 40,000  Level Memphis Center
11:12PM 32.3922 -89.1050 250° West 418 481 40,000  Level Memphis Center
11:13PM 32.3494 -89.2336 249° West 418 481 40,000  Level Memphis Center
11:14PM 32.3089 -89.3619 250° West 418 481 40,000  Level Memphis Center
11:15PM 32.2681 -89.4900 249° West 418 481 40,000  Level Memphis Center
11:16PM 32.2272 -89.6156 249° West 413 475 40,000  Level Memphis Center
11:17PM 32.1861 -89.7436 249° West 413 475 40,000  Level Memphis Center
11:18PM 32.1450 -89.8714 249° West 413 475 40,000  Level Memphis Center
11:19PM 32.1036 -89.9992 249° West 413 475 40,000  Level Memphis Center
11:20PM 32.0622 -90.1244 249° West 413 475 40,000  Level Memphis Center
11:21PM 32.0206 -90.2494 249° West 413 475 40,000  Level Memphis Center
11:22PM 31.9867 -90.3572 250° West 416 479 40,000  Level Houston Center
11:23PM 31.9444 -90.4847 249° West 421 484 40,000  Level Houston Center
11:24PM 31.8944 -90.6378 249° West 420 483 40,000  Level Houston Center
11:25PM 31.8508 -90.7669 248° West 426 490 40,000  Level Houston Center
11:26PM 31.8092 -90.8953 249° West 426 490 40,000  Level Houston Center
11:27PM 31.7647 -91.0247 248° West 429 494 40,000  Level Houston Center
11:28PM 31.7250 -91.1406 248° West 432 497 40,000  Level Houston Center
11:29PM 31.6717 -91.2981 248° West 434 499 40,000  Level Houston Center
11:30PM 31.6275 -91.4297 249° West 434 499 40,000  Level Houston Center
11:31PM 31.5831 -91.5603 248° West 432 497 40,000  Level Houston Center
11:32PM 31.5403 -91.6919 249° West 432 497 40,000  Level Houston Center
11:33PM 31.5103 -91.8264 255° West 428 493 40,000  Level Houston Center
11:34PM 31.4789 -91.9525 254° West 430 495 40,000  Level Houston Center
11:35PM 31.4464 -92.0842 254° West 423 487 40,000  Level Houston Center
11:36PM 31.4133 -92.2189 254° West 429 494 40,000  Level Houston Center
11:37PM 31.3814 -92.3528 254° West 432 497 40,000  Level Houston Center
11:38PM 31.3467 -92.4861 253° West 431 496 40,000  Level Houston Center
11:39PM 31.3147 -92.6192 254° West 428 493 40,000  Level Houston Center
11:40PM 31.2767 -92.7819 255° West 431 496 40,000  Level Houston Center
11:41PM 31.2433 -92.9142 254° West 427 491 40,000  Level Houston Center
11:42PM 31.2094 -93.0478 254° West 429 494 40,000  Level Houston Center
11:43PM 31.1728 -93.1808 252° West 431 496 40,000  Level Houston Center
11:44PM 31.1378 -93.3142 253° West 432 497 40,000  Level Houston Center
11:45PM 31.1036 -93.4461 253° West 429 494 40,000  Level Houston Center
11:46PM 31.0678 -93.5797 253° West 432 497 40,000  Level Houston Center
11:47PM 31.0328 -93.7150 253° West 436 502 40,000  Level Houston Center
11:48PM 30.9964 -93.8472 252° West 435 501 40,000  Level Houston Center
11:49PM 30.9606 -93.9800 253° West 433 498 40,000  Level Houston Center
11:50PM 30.9242 -94.1097 252° West 429 494 40,000  Level Houston Center
11:51PM 30.8861 -94.2478 252° West 433 498 40,000  Level Houston Center
11:52PM 30.8486 -94.3803 252° West 429 494 40,000  Level Houston Center
11:53PM 30.8119 -94.5139 252° West 429 494 40,000  Level Houston Center
11:54PM 30.7747 -94.6483 252° West 432 497 40,000  Level Houston Center
11:55PM 30.7367 -94.7819 252° West 432 497 40,000  Level Houston Center
11:56PM 30.7000 -94.9142 252° West 429 494 40,000  Level Houston Center
11:57PM 30.6625 -95.0456 252° West 427 491 40,000  Level Houston Center
11:58PM 30.6272 -95.1778 253° West 428 493 40,000  Level Houston Center
11:59PM 30.5900 -95.3089 252° West 426 490 40,000  Level Houston Center
12:00AM 30.5542 -95.4350 252° West 430 495 40,000  Level Houston Center
12:01AM 30.5169 -95.5644 252° West 427 491 40,000  Level Houston Center
12:03AM 30.4719 -95.7217 252° West 429 494 40,000  Level Houston Center
12:04AM 30.4339 -95.8533 251° West 432 497 40,000  Level Houston Center
12:05AM 30.3956 -95.9853 251° West 434 499 40,000  Level Houston Center
12:06AM 30.3550 -96.1158 250° West 433 498 40,000  Level Houston Center
12:07AM 30.3167 -96.2508 252° West 436 502 40,000 -240 Level Houston Center
12:08AM 30.2758 -96.3842 251° West 435 501 39,600 -1,620 Descending Houston Center
12:09AM 30.2375 -96.5172 252° West 435 501 36,800 -2,580 Descending Houston Center
12:10AM 30.1972 -96.6528 251° West 440 506 34,500 -2,280 Descending Houston Center
12:11AM 30.1556 -96.7911 251° West 446 513 32,300 -2,160 Descending Houston Center
12:12AM 30.1139 -96.9289 251° West 448 516 30,200 -2,040 Descending Houston Center
12:13AM 30.0750 -97.0608 251° West 453 521 28,200 -2,040 Descending Houston Center
12:14AM 30.0292 -97.2003 249° West 465 535 26,200 -2,100 Descending Houston Center
12:15AM 29.9756 -97.3356 245° Southwest 466 536 24,100 -2,160 Descending Houston Center
12:16AM 29.9253 -97.4689 247° West 460 529 21,900 -2,280 Descending Houston Center
12:16AM 29.8836 -97.5767 246° West 447 514 20,200 -2,220 Descending Houston Center
12:17AM 29.8719 -97.6058 245° Southwest 441 507 19,700 -2,760 Descending Houston Center
12:18AM 29.8267 -97.7239 246° West 436 502 16,900 -2,580 Descending Houston Center
12:19AM 29.7850 -97.8592 250° West 414 476 14,800 -1,980 Descending Houston Center
12:20AM 29.7553 -97.9858 255° West 410 472 13,000 -2,100 Descending Houston Center
12:21AM 29.7283 -98.1022 255° West 373 429 10,600 -1,860 Descending Houston Center
12:22AM 29.7039 -98.2061 255° West 307 353 9,200 -1,740 Descending Houston Center
12:23AM 29.6828 -98.2950 255° West 290 334 7,000 -2,040 Descending Houston Center
12:24AM 29.6628 -98.3789 255° West 275 316 5,100 -2,100 Descending Houston Center
12:25AM 29.6425 -98.4594 254° West 266 306 2,900 -1,200 Descending Houston Center
12:26AM 29.6231 -98.5275 252° West 202 232 2,700 -300 Descending Houston Center
12:27AM 29.5978 -98.5536 222° Southwest 144 166 2,400 -480 Descending Houston Center
12:28AM 29.5750 -98.5261 134° Southeast 122 140 1,800 -600 Descending Houston Center
12:29AM 29.5533 -98.4986 132° Southeast 116 133 1,200 -540 Descending Houston Center
12:30AM 29.5342 -98.4728 130° Southeast 116 133 800 -480 Descending Houston Center